createdAt,value
2018-09-02T00:02:15.936Z,5.93
2018-09-02T00:04:43.903Z,6.53
2018-09-02T00:07:11.881Z,5.77
2018-09-02T00:09:39.951Z,6.70
2018-09-02T00:12:07.925Z,7.00
2018-09-02T00:14:35.964Z,6.50
2018-09-02T00:17:03.925Z,6.67
2018-09-02T00:19:32.200Z,6.22
2018-09-02T00:22:00.300Z,5.90
2018-09-02T00:24:28.290Z,6.17
2018-09-02T00:26:56.299Z,7.37
2018-09-02T00:29:24.283Z,6.87
2018-09-02T00:31:52.328Z,7.37
2018-09-02T00:34:20.289Z,7.17
2018-09-02T00:36:48.267Z,7.17
2018-09-02T00:39:16.258Z,6.40
2018-09-02T00:41:44.208Z,6.50
2018-09-02T00:44:12.148Z,7.50
2018-09-02T00:46:40.142Z,7.50
2018-09-02T00:49:08.113Z,7.00
2018-09-02T00:51:36.075Z,6.60
2018-09-02T00:54:04.144Z,6.47
2018-09-02T00:56:32.631Z,7.30
2018-09-02T00:59:00.616Z,6.57
2018-09-02T01:01:28.611Z,6.47
2018-09-02T01:03:56.556Z,6.87
2018-09-02T01:06:24.848Z,7.37
2018-09-02T01:08:52.789Z,7.50
2018-09-02T01:11:20.850Z,7.90
2018-09-02T01:13:48.822Z,7.90
2018-09-02T01:16:16.808Z,7.07
2018-09-02T01:18:44.776Z,7.60
2018-09-02T01:21:12.883Z,7.77
2018-09-02T01:23:40.844Z,7.80
2018-09-02T01:26:08.786Z,7.60
2018-09-02T01:28:36.800Z,8.40
2018-09-02T01:31:04.909Z,8.47
2018-09-02T01:33:33.185Z,8.43
2018-09-02T01:36:01.155Z,8.00
2018-09-02T01:38:29.109Z,7.97
2018-09-02T01:40:57.117Z,8.67
2018-09-02T01:43:25.111Z,8.10
2018-09-02T01:45:53.057Z,8.60
2018-09-02T01:48:21.011Z,7.60
2018-09-02T01:50:49.054Z,7.83
2018-09-02T01:53:17.044Z,7.77
2018-09-02T01:55:45.086Z,7.90
2018-09-02T01:58:13.036Z,7.57
2018-09-02T02:00:41.000Z,7.40
2018-09-02T02:03:08.959Z,7.93
2018-09-02T02:05:36.904Z,8.00
2018-09-02T02:08:04.869Z,8.00
2018-09-02T02:10:35.390Z,8.43
2018-09-02T02:13:03.655Z,7.40
2018-09-02T02:15:31.646Z,8.10
2018-09-02T02:17:59.616Z,7.80
2018-09-02T02:20:27.693Z,8.00
2018-09-02T02:22:55.744Z,8.00
2018-09-02T02:25:23.749Z,7.57
2018-09-02T02:27:51.675Z,8.13
2018-09-02T02:30:19.624Z,7.70
2018-09-02T02:32:47.726Z,7.90
2018-09-02T02:35:15.684Z,8.17
2018-09-02T02:37:43.615Z,8.08
2018-09-02T02:40:11.575Z,8.40
2018-09-02T02:42:39.536Z,8.20
2018-09-02T02:45:07.506Z,8.40
2018-09-02T02:47:36.097Z,7.90
2018-09-02T02:50:04.283Z,7.65
2018-09-02T02:52:37.703Z,7.80
2018-09-02T02:55:08.428Z,8.30
2018-09-02T02:57:36.392Z,7.73
2018-09-02T03:00:04.596Z,8.17
2018-09-02T03:02:32.543Z,8.03
2018-09-02T03:05:00.561Z,7.80
2018-09-02T03:07:28.663Z,7.90
2018-09-02T03:09:56.622Z,8.03
2018-09-02T03:12:24.641Z,8.27
2018-09-02T03:14:52.608Z,8.37
2018-09-02T03:17:20.610Z,7.90
2018-09-02T03:19:48.528Z,8.53
2018-09-02T03:22:16.659Z,8.00
2018-09-02T03:24:44.815Z,8.50
2018-09-02T03:27:12.769Z,8.23
2018-09-02T03:29:40.789Z,7.87
2018-09-02T03:32:08.774Z,9.00
2018-09-02T03:34:36.861Z,8.67
2018-09-02T03:37:05.668Z,8.60
2018-09-02T03:39:33.630Z,8.73
2018-09-02T03:42:01.748Z,8.50
2018-09-02T03:44:29.736Z,8.30
2018-09-02T03:46:57.808Z,8.80
2018-09-02T03:49:25.974Z,8.43
2018-09-02T03:51:53.966Z,8.20
2018-09-02T03:54:21.955Z,9.17
2018-09-02T03:56:49.923Z,8.30
2018-09-02T03:59:17.875Z,9.10
2018-09-02T04:01:52.799Z,8.97
2018-09-02T04:04:20.822Z,8.73
2018-09-02T04:06:48.820Z,8.80
2018-09-02T04:09:16.830Z,8.97
2018-09-02T04:11:44.801Z,8.70
2018-09-02T04:14:12.873Z,9.20
2018-09-02T04:16:40.850Z,8.30
2018-09-02T04:19:09.404Z,8.98
2018-09-02T04:21:37.410Z,8.40
2018-09-02T04:24:05.364Z,8.50
2018-09-02T04:26:33.299Z,9.47
2018-09-02T04:29:01.368Z,12.43
2018-09-02T04:31:29.437Z,8.30
2018-09-02T04:33:57.439Z,9.50
2018-09-02T04:36:25.459Z,9.20
2018-09-02T04:38:53.598Z,9.00
2018-09-02T04:41:21.554Z,9.30
2018-09-02T04:43:49.573Z,9.00
2018-09-02T04:46:17.499Z,9.40
2018-09-02T04:48:45.449Z,9.00
2018-09-02T04:51:13.409Z,8.77
2018-09-02T04:53:41.412Z,9.50
2018-09-02T04:56:10.068Z,9.35
2018-09-02T04:58:38.016Z,8.53
2018-09-02T05:01:05.947Z,9.30
2018-09-02T05:03:34.013Z,8.40
2018-09-02T05:06:01.945Z,9.00
2018-09-02T05:08:29.938Z,9.20
2018-09-02T05:10:57.879Z,8.67
2018-09-02T05:13:25.944Z,9.10
2018-09-02T05:15:53.916Z,8.47
2018-09-02T05:18:21.897Z,7.93
2018-09-02T05:20:50.063Z,8.70
2018-09-02T05:23:18.052Z,8.17
2018-09-02T05:25:46.052Z,8.30
2018-09-02T05:28:14.128Z,8.50
2018-09-02T05:30:42.058Z,8.57
2018-09-02T05:33:10.535Z,7.60
2018-09-02T05:35:38.584Z,8.40
2018-09-02T05:38:06.508Z,8.53
2018-09-02T05:40:34.550Z,8.40
2018-09-02T05:43:02.532Z,8.50
2018-09-02T05:45:30.511Z,8.73
2018-09-02T05:47:58.541Z,9.00
2018-09-02T05:50:26.576Z,7.57
2018-09-02T05:52:54.560Z,8.07
2018-09-02T05:55:22.495Z,7.63
2018-09-02T05:57:50.518Z,7.60
2018-09-02T06:00:18.504Z,8.43
2018-09-02T06:02:46.499Z,8.60
2018-09-02T06:05:14.386Z,8.20
2018-09-02T06:07:42.384Z,8.13
2018-09-02T06:10:11.332Z,8.20
2018-09-02T06:12:39.252Z,8.00
2018-09-02T06:15:07.324Z,7.87
2018-09-02T06:17:35.364Z,7.83
2018-09-02T06:20:03.394Z,8.20
2018-09-02T06:22:31.353Z,8.13
2018-09-02T06:24:59.300Z,7.60
2018-09-02T06:27:27.516Z,7.60
2018-09-02T06:29:55.523Z,7.70
2018-09-02T06:32:23.434Z,7.90
2018-09-02T06:34:51.452Z,7.53
2018-09-02T06:37:19.382Z,7.90
2018-09-02T06:39:47.426Z,8.60
2018-09-02T06:42:15.431Z,7.67
2018-09-02T06:44:43.525Z,8.00
2018-09-02T06:47:11.901Z,8.15
2018-09-02T06:49:39.855Z,7.90
2018-09-02T06:52:07.955Z,8.03
2018-09-02T06:54:35.931Z,8.20
2018-09-02T06:57:03.843Z,8.37
2018-09-02T06:59:31.807Z,8.13
2018-09-02T07:01:59.859Z,9.00
2018-09-02T07:04:27.871Z,8.17
2018-09-02T07:06:55.840Z,8.70
2018-09-02T07:09:23.820Z,8.53
2018-09-02T07:11:51.852Z,8.30
2018-09-02T07:14:19.839Z,8.30
2018-09-02T07:16:47.860Z,7.73
2018-09-02T07:19:15.800Z,8.00
2018-09-02T07:21:43.756Z,8.20
2018-09-02T07:24:12.709Z,8.53
2018-09-02T07:26:40.705Z,7.77
2018-09-02T07:29:08.687Z,7.90
2018-09-02T07:31:36.749Z,7.27
2018-09-02T07:34:04.582Z,8.30
2018-09-02T07:36:33.008Z,7.83
2018-09-02T07:39:01.024Z,7.63
2018-09-02T07:41:29.769Z,7.33
2018-09-02T07:43:58.457Z,7.97
2018-09-02T07:46:26.866Z,8.30
2018-09-02T07:48:55.297Z,7.97
2018-09-02T07:51:23.579Z,7.30
2018-09-02T07:53:52.639Z,7.00
2018-09-02T07:56:20.575Z,7.40
2018-09-02T07:58:48.556Z,7.80
2018-09-02T08:01:16.545Z,7.60
2018-09-02T08:03:44.734Z,7.70
2018-09-02T08:06:13.231Z,7.83
2018-09-02T08:08:41.200Z,7.90
2018-09-02T08:11:09.179Z,7.47
2018-09-02T08:13:37.169Z,6.80
2018-09-02T08:16:05.096Z,6.70
2018-09-02T08:18:33.044Z,6.70
2018-09-02T08:21:01.038Z,6.30
2018-09-02T08:23:28.996Z,7.37
2018-09-02T08:25:57.175Z,7.10
2018-09-02T08:28:25.163Z,6.60
2018-09-02T08:30:53.136Z,6.97
2018-09-02T08:33:21.212Z,6.67
2018-09-02T08:35:49.249Z,5.60
2018-09-02T08:38:17.232Z,6.20
2018-09-02T08:40:45.182Z,5.13
2018-09-02T08:43:13.857Z,6.10
2018-09-02T08:45:41.838Z,5.83
2018-09-02T08:48:09.772Z,6.30
2018-09-02T08:50:37.919Z,5.70
2018-09-02T08:53:05.748Z,5.57
2018-09-02T08:55:33.760Z,5.50
2018-09-02T08:58:01.713Z,5.40
2018-09-02T09:00:30.762Z,5.10
2018-09-02T09:02:58.767Z,6.27
2018-09-02T09:05:27.658Z,5.80
2018-09-02T09:07:55.744Z,5.70
2018-09-02T09:10:23.704Z,5.37
2018-09-02T09:12:51.660Z,5.90
2018-09-02T09:15:19.622Z,4.65
2018-09-02T09:17:47.582Z,5.00
2018-09-02T09:20:15.562Z,5.10
2018-09-02T09:22:44.605Z,4.60
2018-09-02T09:25:12.539Z,4.73
2018-09-02T09:27:40.695Z,4.70
2018-09-02T09:30:09.616Z,4.67
2018-09-02T09:32:38.112Z,4.90
2018-09-02T09:35:06.310Z,4.70
2018-09-02T09:37:34.577Z,4.53
2018-09-02T09:40:02.664Z,4.70
2018-09-02T09:42:30.655Z,3.87
2018-09-02T09:44:58.626Z,4.60
2018-09-02T09:47:26.697Z,4.40
2018-09-02T09:49:54.694Z,4.63
2018-09-02T09:52:22.638Z,4.30
2018-09-02T09:54:50.638Z,3.77
2018-09-02T09:57:18.586Z,4.40
2018-09-02T09:59:46.519Z,3.83
2018-09-02T10:02:15.133Z,4.35
2018-09-02T10:04:43.096Z,4.30
2018-09-02T10:07:11.063Z,3.30
2018-09-02T10:09:39.060Z,4.20
2018-09-02T10:12:07.024Z,3.90
2018-09-02T10:14:34.998Z,3.33
2018-09-02T10:17:03.028Z,3.50
2018-09-02T10:19:31.027Z,3.60
2018-09-02T10:21:59.165Z,3.50
2018-09-02T10:24:27.256Z,4.00
2018-09-02T10:26:55.283Z,3.63
2018-09-02T10:29:23.272Z,3.60
2018-09-02T10:31:51.280Z,3.67
2018-09-02T10:34:19.459Z,3.57
2018-09-02T10:36:47.412Z,3.70
2018-09-02T10:39:15.763Z,3.75
2018-09-02T10:41:43.739Z,3.30
2018-09-02T10:44:11.675Z,3.03
2018-09-02T10:46:39.690Z,3.33
2018-09-02T10:49:07.659Z,3.40
2018-09-02T10:51:35.608Z,3.40
2018-09-02T10:54:03.621Z,3.07
2018-09-02T10:56:31.567Z,3.50
2018-09-02T10:58:59.589Z,3.27
2018-09-02T11:01:27.531Z,3.33
2018-09-02T11:03:55.508Z,3.27
2018-09-02T11:06:23.505Z,3.93
2018-09-02T11:08:51.446Z,3.40
2018-09-02T11:11:19.380Z,3.43
2018-09-02T11:13:47.404Z,3.87
2018-09-02T11:16:16.257Z,3.60
2018-09-02T11:18:44.164Z,3.43
2018-09-02T11:21:12.120Z,3.10
2018-09-02T11:23:40.103Z,4.03
2018-09-02T11:26:08.100Z,4.60
2018-09-02T11:28:36.084Z,4.03
2018-09-02T11:31:04.052Z,3.30
2018-09-02T11:33:32.036Z,3.40
2018-09-02T11:36:00.019Z,3.70
2018-09-02T11:38:28.207Z,3.53
2018-09-02T11:40:56.161Z,3.60
2018-09-02T11:43:24.119Z,3.27
2018-09-02T11:45:52.147Z,3.30
2018-09-02T11:48:20.074Z,3.47
2018-09-02T11:50:48.112Z,3.63
2018-09-02T11:53:16.980Z,3.13
2018-09-02T11:55:44.985Z,3.00
2018-09-02T11:58:12.937Z,3.60
2018-09-02T12:00:40.883Z,3.10
2018-09-02T12:03:08.860Z,3.50
2018-09-02T12:05:36.919Z,3.80
2018-09-02T12:08:05.207Z,3.50
2018-09-02T12:10:33.155Z,3.17
2018-09-02T12:13:01.157Z,3.03
2018-09-02T12:15:29.104Z,3.23
2018-09-02T12:17:57.099Z,3.30
2018-09-02T12:20:25.168Z,3.40
2018-09-02T12:22:53.243Z,3.43
2018-09-02T12:25:21.175Z,3.70
2018-09-02T12:27:49.366Z,3.03
2018-09-02T12:30:17.864Z,3.37
2018-09-02T12:32:45.941Z,3.73
2018-09-02T12:35:13.938Z,3.03
2018-09-02T12:37:41.872Z,3.47
2018-09-02T12:40:10.094Z,3.30
2018-09-02T12:42:38.034Z,2.93
2018-09-02T12:45:06.374Z,3.47
2018-09-02T12:47:34.680Z,3.00
2018-09-02T12:50:02.767Z,3.30
2018-09-02T12:52:30.737Z,3.10
2018-09-02T12:54:58.681Z,3.03
2018-09-02T12:57:26.680Z,3.07
2018-09-02T12:59:54.919Z,3.17
2018-09-02T13:02:22.891Z,2.97
2018-09-02T13:04:50.926Z,3.27
2018-09-02T13:07:18.897Z,3.10
2018-09-02T13:09:46.848Z,3.20
2018-09-02T13:12:14.853Z,3.63
2018-09-02T13:14:42.972Z,3.47
2018-09-02T13:17:10.922Z,3.00
2018-09-02T13:19:38.885Z,3.70
2018-09-02T13:22:06.862Z,3.33
2018-09-02T13:24:34.893Z,3.27
2018-09-02T13:27:02.796Z,3.40
2018-09-02T13:29:30.787Z,3.40
2018-09-02T13:31:58.964Z,3.70
2018-09-02T13:34:27.340Z,3.40
2018-09-02T13:36:55.429Z,3.50
2018-09-02T13:39:23.610Z,3.40
2018-09-02T13:41:51.671Z,3.27
2018-09-02T13:44:19.619Z,3.53
2018-09-02T13:46:47.583Z,4.00
2018-09-02T13:49:15.530Z,5.30
2018-09-02T13:51:43.589Z,3.60
2018-09-02T13:54:11.718Z,4.17
2018-09-02T13:56:39.637Z,3.53
2018-09-02T13:59:07.840Z,3.93
2018-09-02T14:01:35.845Z,3.33
2018-09-02T14:04:03.822Z,3.73
2018-09-02T14:06:31.896Z,3.40
2018-09-02T14:09:00.159Z,3.60
2018-09-02T14:11:28.199Z,3.90
2018-09-02T14:13:56.286Z,4.00
2018-09-02T14:16:24.446Z,3.77
2018-09-02T14:18:52.792Z,3.37
2018-09-02T14:21:20.764Z,4.27
2018-09-02T14:23:48.799Z,4.10
2018-09-02T14:26:17.264Z,4.23
2018-09-02T14:28:45.204Z,4.30
2018-09-02T14:31:13.233Z,3.87
2018-09-02T14:33:41.214Z,3.90
2018-09-02T14:36:09.210Z,4.60
2018-09-02T14:38:37.193Z,4.03
2018-09-02T14:41:05.478Z,4.13
2018-09-02T14:43:33.756Z,4.27
2018-09-02T14:46:01.836Z,4.53
2018-09-02T14:48:29.801Z,4.63
2018-09-02T14:50:57.890Z,4.00
2018-09-02T14:53:29.167Z,4.10
2018-09-02T14:55:57.602Z,4.20
2018-09-02T14:58:26.025Z,4.50
2018-09-02T15:00:54.292Z,5.30
2018-09-02T15:03:22.382Z,4.57
2018-09-02T15:05:50.606Z,5.50
2018-09-02T15:08:18.637Z,5.03
2018-09-02T15:10:46.640Z,4.37
2018-09-02T15:13:14.683Z,4.30
2018-09-02T15:15:42.994Z,4.50
2018-09-02T15:18:10.980Z,3.53
2018-09-02T15:20:39.055Z,4.20
2018-09-02T15:23:07.840Z,5.97
2018-09-02T15:25:35.820Z,4.50
2018-09-02T15:28:03.792Z,6.53
2018-09-02T15:30:33.318Z,4.50
2018-09-02T15:33:01.267Z,3.83
2018-09-02T15:35:30.994Z,3.90
2018-09-02T15:37:58.972Z,5.17
2018-09-02T15:40:27.163Z,4.40
2018-09-02T15:42:55.148Z,4.60
2018-09-02T15:45:23.109Z,3.80
2018-09-02T15:47:51.349Z,4.07
2018-09-02T15:50:19.386Z,3.80
2018-09-02T15:52:47.368Z,3.87
2018-09-02T15:55:15.563Z,3.80
2018-09-02T15:57:43.680Z,3.80
2018-09-02T16:00:11.604Z,3.97
2018-09-02T16:02:39.688Z,4.10
2018-09-02T16:05:07.615Z,4.35
2018-09-02T16:07:35.633Z,5.40
2018-09-02T16:10:03.853Z,4.10
2018-09-02T16:12:32.149Z,3.77
2018-09-02T16:15:00.352Z,3.80
2018-09-02T16:17:28.836Z,4.40
2018-09-02T16:19:56.897Z,3.93
2018-09-02T16:22:25.520Z,3.97
2018-09-02T16:24:53.717Z,4.20
2018-09-02T16:27:22.024Z,4.13
2018-09-02T16:29:50.067Z,4.03
2018-09-02T16:32:18.058Z,3.77
2018-09-02T16:34:46.089Z,4.43
2018-09-02T16:37:14.148Z,4.43
2018-09-02T16:39:42.138Z,3.90
2018-09-02T16:42:10.090Z,3.70
2018-09-02T16:44:38.154Z,3.47
2018-09-02T16:47:06.120Z,4.20
2018-09-02T16:49:34.166Z,3.90
2018-09-02T16:52:02.143Z,4.40
2018-09-02T16:54:30.416Z,4.13
2018-09-02T16:56:58.671Z,4.00
2018-09-02T16:59:26.751Z,4.20
2018-09-02T17:01:54.791Z,4.70
2018-09-02T17:04:24.454Z,5.40
2018-09-02T17:06:52.848Z,5.47
2018-09-02T17:09:20.944Z,6.30
2018-09-02T17:11:49.040Z,5.30
2018-09-02T17:14:16.912Z,4.90
2018-09-02T17:16:44.892Z,5.67
2018-09-02T17:19:17.543Z,5.50
2018-09-02T17:21:45.528Z,4.57
2018-09-02T17:24:13.520Z,4.17
2018-09-02T17:26:41.525Z,4.00
2018-09-02T17:29:09.602Z,3.80
2018-09-02T17:31:37.629Z,4.13
2018-09-02T17:34:05.623Z,3.80
2018-09-02T17:36:33.697Z,4.50
2018-09-02T17:39:01.728Z,3.90
2018-09-02T17:41:29.716Z,4.27
2018-09-02T17:43:57.938Z,3.80
2018-09-02T17:46:26.074Z,3.90
2018-09-02T17:48:54.085Z,3.90
2018-09-02T17:51:22.134Z,4.30
2018-09-02T17:53:50.992Z,4.70
2018-09-02T17:56:18.937Z,4.53
2018-09-02T17:58:47.191Z,4.33
2018-09-02T18:01:15.156Z,4.17
2018-09-02T18:03:43.145Z,4.47
2018-09-02T18:06:11.173Z,4.20
2018-09-02T18:08:39.161Z,3.90
2018-09-02T18:11:07.081Z,3.83
2018-09-02T18:13:35.059Z,4.10
2018-09-02T18:16:03.075Z,4.10
2018-09-02T18:18:31.001Z,3.63
2018-09-02T18:20:59.020Z,4.00
2018-09-02T18:23:27.055Z,4.13
2018-09-02T18:25:55.062Z,4.40
2018-09-02T18:28:26.107Z,3.72
2018-09-02T18:30:54.093Z,3.30
2018-09-02T18:33:22.139Z,4.07
2018-09-02T18:35:50.088Z,4.07
2018-09-02T18:38:18.018Z,4.03
2018-09-02T18:40:45.996Z,4.10
2018-09-02T18:43:14.044Z,4.37
2018-09-02T18:45:42.015Z,4.00
2018-09-02T18:48:09.952Z,4.33
2018-09-02T18:50:38.102Z,4.30
2018-09-02T18:53:06.089Z,3.70
2018-09-02T18:55:34.028Z,4.27
2018-09-02T18:58:02.093Z,4.60
2018-09-02T19:00:30.111Z,4.33
2018-09-02T19:02:58.243Z,4.50
2018-09-02T19:05:26.166Z,4.30
2018-09-02T19:07:54.658Z,4.50
2018-09-02T19:10:22.683Z,3.80
2018-09-02T19:12:50.650Z,4.47
2018-09-02T19:15:18.685Z,4.40
2018-09-02T19:17:46.827Z,4.20
2018-09-02T19:20:14.765Z,4.40
2018-09-02T19:22:42.867Z,4.93
2018-09-02T19:25:10.831Z,4.87
2018-09-02T19:27:38.802Z,5.10
2018-09-02T19:30:07.200Z,4.93
2018-09-02T19:32:35.152Z,5.83
2018-09-02T19:35:03.608Z,4.80
2018-09-02T19:37:31.691Z,5.40
2018-09-02T19:39:59.707Z,4.40
2018-09-02T19:42:27.729Z,5.43
2018-09-02T19:44:55.825Z,5.80
2018-09-02T19:47:23.850Z,5.67
2018-09-02T19:49:51.817Z,5.93
2018-09-02T19:52:19.784Z,5.80
2018-09-02T19:54:47.844Z,5.67
2018-09-02T19:57:15.832Z,5.60
2018-09-02T19:59:43.785Z,5.37
2018-09-02T20:02:11.743Z,5.70
2018-09-02T20:04:39.701Z,6.13
2018-09-02T20:07:07.752Z,6.47
2018-09-02T20:09:35.719Z,6.53
2018-09-02T20:12:03.685Z,5.97
2018-09-02T20:14:31.679Z,5.17
2018-09-02T20:16:59.681Z,5.80
2018-09-02T20:19:27.591Z,5.33
2018-09-02T20:21:55.756Z,5.50
2018-09-02T20:24:23.734Z,5.13
2018-09-02T20:26:51.699Z,5.17
2018-09-02T20:29:19.690Z,5.10
2018-09-02T20:31:47.596Z,5.30
2018-09-02T20:34:15.648Z,4.43
2018-09-02T20:36:43.629Z,4.73
2018-09-02T20:39:11.603Z,5.00
2018-09-02T20:41:39.555Z,4.67
2018-09-02T20:44:07.789Z,4.90
2018-09-02T20:46:35.808Z,4.87
2018-09-02T20:49:04.411Z,5.13
2018-09-02T20:51:32.327Z,4.47
2018-09-02T20:54:00.324Z,5.50
2018-09-02T20:56:28.427Z,4.93
2018-09-02T20:58:57.302Z,5.10
2018-09-02T21:01:28.654Z,5.50
2018-09-02T21:03:57.241Z,5.53
2018-09-02T21:06:29.981Z,5.35
2018-09-02T21:08:57.972Z,5.77
2018-09-02T21:11:27.130Z,5.95
2018-09-02T21:13:55.128Z,5.50
2018-09-02T21:16:23.087Z,5.70
2018-09-02T21:18:51.286Z,5.70
2018-09-02T21:21:19.216Z,5.47
2018-09-02T21:23:47.359Z,5.50
2018-09-02T21:26:15.477Z,4.60
2018-09-02T21:28:43.509Z,5.00
2018-09-02T21:31:11.491Z,5.03
2018-09-02T21:33:39.412Z,4.77
2018-09-02T21:36:07.481Z,4.87
2018-09-02T21:38:35.487Z,4.50
2018-09-02T21:41:03.429Z,4.10
2018-09-02T21:43:32.096Z,4.47
2018-09-02T21:46:00.083Z,4.43
2018-09-02T21:48:29.052Z,3.90
2018-09-02T21:50:57.204Z,4.10
2018-09-02T21:53:25.516Z,4.00
2018-09-02T21:55:53.819Z,3.60
2018-09-02T21:58:21.872Z,4.20
2018-09-02T22:00:49.916Z,3.80
2018-09-02T22:03:18.498Z,3.80
2018-09-02T22:05:46.583Z,4.13
2018-09-02T22:08:14.581Z,4.13
2018-09-02T22:10:42.719Z,3.70
2018-09-02T22:13:10.688Z,4.07
2018-09-02T22:15:38.636Z,3.80
2018-09-02T22:18:06.596Z,4.27
2018-09-02T22:20:34.718Z,4.43
2018-09-02T22:23:02.904Z,4.67
2018-09-02T22:25:30.886Z,3.97
2018-09-02T22:27:58.997Z,3.87
2018-09-02T22:30:27.502Z,3.93
2018-09-02T22:32:56.611Z,4.17
2018-09-02T22:35:29.154Z,3.73
2018-09-02T22:37:58.587Z,4.03
2018-09-02T22:40:28.751Z,3.80
2018-09-02T22:42:57.900Z,3.58
2018-09-02T22:45:25.912Z,3.80
2018-09-02T22:47:55.495Z,3.80
2018-09-02T22:50:23.517Z,3.87
2018-09-02T22:52:51.487Z,3.67
2018-09-02T22:55:20.156Z,3.70
2018-09-02T22:57:48.098Z,3.63
2018-09-02T23:00:16.157Z,4.00
2018-09-02T23:02:44.236Z,3.50
2018-09-02T23:05:12.177Z,3.90
2018-09-02T23:07:40.389Z,3.50
2018-09-02T23:10:08.469Z,3.53
2018-09-02T23:12:36.457Z,3.63
2018-09-02T23:15:04.540Z,3.67
2018-09-02T23:17:32.625Z,3.50
2018-09-02T23:20:00.551Z,4.00
2018-09-02T23:22:28.596Z,3.60
2018-09-02T23:24:56.608Z,3.70
2018-09-02T23:27:24.658Z,3.70
2018-09-02T23:29:52.581Z,3.50
2018-09-02T23:32:20.553Z,3.77
2018-09-02T23:34:48.572Z,3.47
2018-09-02T23:37:16.539Z,3.73
2018-09-02T23:39:44.826Z,3.93
2018-09-02T23:42:12.829Z,3.70
2018-09-02T23:44:40.809Z,3.23
2018-09-02T23:47:08.765Z,3.47
2018-09-02T23:49:36.892Z,3.40
2018-09-02T23:52:04.993Z,3.30
2018-09-02T23:54:32.943Z,3.37
2018-09-02T23:57:00.954Z,3.97
2018-09-02T23:59:28.913Z,3.33
